Time;durP1;ratioP1;P1;durP2;ratioP2;P2;SDS_P1;SDS_P2;PMS_P1;PMS_P2;Temp;Humidity;BMP_temperature;BMP_pressure;BME280_temperature;BME280_humidity;BME280_pressure;Samples;Min_cycle;Max_cycle;Signal;HPM_P1;HPM_P2
2024/01/01 00:00:21;;;;;;;22.17;10.77;;;;;;;9.27;67.66;99742.88;5090594;28;20107;-64
2024/01/01 00:02:47;;;;;;;17.15;7.30;;;;;;;9.20;67.23;99745.09;5090129;28;20099;-64
2024/01/01 00:05:12;;;;;;;14.88;7.78;;;;;;;9.15;66.83;99749.78;5090737;28;20047;-64
2024/01/01 00:07:37;;;;;;;13.30;6.28;;;;;;;9.15;67.21;99766.38;5087645;28;20042;-65
2024/01/01 00:10:04;;;;;;;9.73;3.42;;;;;;;9.04;67.45;99782.97;5087619;28;20035;-64
2024/01/01 00:12:30;;;;;;;6.55;2.80;;;;;;;9.06;67.79;99772.44;5061303;28;20166;-65
2024/01/01 00:14:55;;;;;;;7.47;3.08;;;;;;;9.03;67.74;99761.06;5070282;28;20650;-65
2024/01/01 00:17:26;;;;;;;7.28;3.75;;;;;;;8.95;67.96;99767.13;5069758;28;20028;-64
2024/01/01 00:19:51;;;;;;;10.05;3.33;;;;;;;8.90;68.04;99773.47;5069012;28;20060;-66
2024/01/01 00:22:17;;;;;;;5.28;2.70;;;;;;;8.90;68.41;99783.72;5068670;28;20463;-65
2024/01/01 00:24:42;;;;;;;9.80;4.65;;;;;;;8.92;68.54;99779.59;5069608;28;20035;-64
2024/01/01 00:27:08;;;;;;;7.32;4.70;;;;;;;8.92;68.05;99787.88;5070037;28;20029;-64
2024/01/01 00:29:33;;;;;;;11.93;4.68;;;;;;;8.93;68.57;99777.66;5057720;28;20045;-64
2024/01/01 00:31:58;;;;;;;7.55;4.88;;;;;;;8.93;68.73;99777.66;5068966;28;20024;-64
2024/01/01 00:34:23;;;;;;;11.95;7.47;;;;;;;8.88;68.56;99774.81;5070189;28;20562;-65
2024/01/01 00:36:49;;;;;;;11.80;6.75;;;;;;;8.91;69.03;99786.19;5056270;28;20795;-64
2024/01/01 00:39:14;;;;;;;8.73;4.50;;;;;;;8.91;68.64;99775.13;5050863;28;20044;-64
2024/01/01 00:41:40;;;;;;;6.50;3.88;;;;;;;8.93;68.64;99775.72;5053548;28;20538;-64
2024/01/01 00:44:05;;;;;;;7.32;3.95;;;;;;;8.88;68.67;99772.88;5074465;28;20056;-64
2024/01/01 00:46:31;;;;;;;9.23;5.70;;;;;;;8.87;69.13;99778.69;5073061;28;20067;-64
2024/01/01 00:48:56;;;;;;;9.50;4.30;;;;;;;8.82;68.97;99779.50;5073482;28;20066;-64
2024/01/01 00:51:22;;;;;;;5.40;3.08;;;;;;;8.80;67.94;99782.56;5073953;28;20036;-64
2024/01/01 00:53:52;;;;;;;9.05;3.90;;;;;;;8.76;68.12;99777.81;5073201;28;20476;-64
2024/01/01 00:56:17;;;;;;;6.90;3.70;;;;;;;8.75;68.29;99782.50;5058926;28;20044;-64
2024/01/01 00:58:43;;;;;;;6.78;3.22;;;;;;;8.73;68.36;99770.06;5062308;28;20024;-64
2024/01/01 01:01:08;;;;;;;8.05;3.80;;;;;;;8.76;68.29;99773.13;5065731;28;20039;-64
2024/01/01 01:03:36;;;;;;;7.75;3.65;;;;;;;8.76;68.36;99763.97;5091192;28;20054;-61
2024/01/01 01:06:03;;;;;;;6.15;3.33;;;;;;;8.72;68.14;99769.19;5092169;28;20024;-65
2024/01/01 01:08:28;;;;;;;5.80;3.30;;;;;;;8.66;68.11;99773.06;5058526;28;20099;-63
2024/01/01 01:10:54;;;;;;;8.48;3.65;;;;;;;8.58;68.44;99782.69;5083382;28;20107;-63
2024/01/01 01:13:19;;;;;;;8.88;4.43;;;;;;;8.52;69.17;99782.91;5074328;28;20028;-64
2024/01/01 01:15:44;;;;;;;5.70;3.80;;;;;;;8.54;68.99;99784.31;5078974;28;20376;-64
2024/01/01 01:18:09;;;;;;;8.02;4.00;;;;;;;8.53;69.40;99781.81;5082933;28;20070;-64
2024/01/01 01:20:35;;;;;;;7.93;3.35;;;;;;;8.54;69.07;99789.03;5092491;28;20016;-63
2024/01/01 01:23:01;;;;;;;10.73;3.63;;;;;;;8.56;69.20;99775.75;5092589;28;20073;-64
2024/01/01 01:25:26;;;;;;;10.50;3.80;;;;;;;8.59;69.40;99784.34;5093349;28;20036;-63
2024/01/01 01:27:51;;;;;;;6.63;3.20;;;;;;;8.54;69.57;99783.50;5092257;28;20028;-62
2024/01/01 01:30:17;;;;;;;8.35;3.90;;;;;;;8.49;69.56;99784.28;5080334;28;20056;-63
2024/01/01 01:32:42;;;;;;;9.02;3.20;;;;;;;8.47;69.81;99788.41;5062227;28;20033;-63
2024/01/01 01:35:08;;;;;;;8.85;2.53;;;;;;;8.44;70.15;99795.28;5084627;28;20035;-63
2024/01/01 01:37:33;;;;;;;6.15;3.10;;;;;;;8.39;70.25;99792.50;5072941;28;20029;-63
2024/01/01 01:39:59;;;;;;;7.40;3.10;;;;;;;8.36;70.48;99787.47;5076123;28;20044;-63
2024/01/01 01:42:24;;;;;;;9.38;2.83;;;;;;;8.36;71.26;99809.56;5091993;28;20118;-63
2024/01/01 01:44:49;;;;;;;9.32;2.90;;;;;;;8.36;71.32;99793.81;5071210;28;20978;-63
2024/01/01 01:47:15;;;;;;;8.10;2.92;;;;;;;8.32;71.86;99787.16;5057209;28;20070;-63
2024/01/01 01:49:41;;;;;;;6.22;2.42;;;;;;;8.33;71.77;99783.31;5088173;28;20031;-63
2024/01/01 01:52:09;;;;;;;8.63;3.28;;;;;;;8.28;72.11;99786.00;5091643;28;20024;-63
2024/01/01 01:54:36;;;;;;;8.90;3.08;;;;;;;8.27;72.51;99789.88;5092563;28;20032;-63
2024/01/01 01:57:03;;;;;;;9.80;2.88;;;;;;;8.26;72.23;99784.63;5089676;28;20107;-64
2024/01/01 01:59:29;;;;;;;10.10;2.72;;;;;;;8.29;72.12;99786.84;5091991;28;20035;-63
2024/01/01 02:01:56;;;;;;;9.77;3.05;;;;;;;8.30;72.85;99791.28;5083814;28;20035;-63
2024/01/01 02:04:21;;;;;;;9.98;3.10;;;;;;;8.28;72.23;99783.25;5071722;28;20031;-63
2024/01/01 02:06:46;;;;;;;10.10;3.03;;;;;;;8.29;72.25;99781.31;5068651;28;20029;-64
2024/01/01 02:09:12;;;;;;;12.05;3.00;;;;;;;8.34;73.06;99796.03;5070564;28;20024;-63
2024/01/01 02:11:37;;;;;;;7.75;3.00;;;;;;;8.29;72.53;99786.84;5052737;28;20037;-63
2024/01/01 02:14:10;;;;;;;11.10;2.92;;;;;;;8.28;72.87;99793.47;5063654;28;20036;-63
2024/01/01 02:16:35;;;;;;;7.32;3.10;;;;;;;8.24;73.06;99787.63;5072557;28;20020;-63
2024/01/01 02:19:01;;;;;;;10.50;3.25;;;;;;;8.31;73.41;99799.31;5092139;28;20028;-64
2024/01/01 02:21:27;;;;;;;9.45;3.10;;;;;;;8.34;73.14;99795.19;5071506;28;20469;-64
2024/01/01 02:23:53;;;;;;;11.27;2.90;;;;;;;8.35;72.81;99794.09;5072572;28;20478;-63
2024/01/01 02:26:18;;;;;;;9.65;2.67;;;;;;;8.38;72.93;99796.38;5092092;28;20059;-64
2024/01/01 02:28:43;;;;;;;7.55;2.35;;;;;;;8.38;73.40;99801.91;5091452;28;20096;-63
2024/01/01 02:31:09;;;;;;;12.00;3.40;;;;;;;8.42;73.04;99807.72;5090914;28;20127;-63
2024/01/01 02:33:34;;;;;;;8.32;2.58;;;;;;;8.44;73.33;99794.47;5091547;28;20050;-63
2024/01/01 02:35:59;;;;;;;13.95;3.10;;;;;;;8.45;73.86;99810.81;5082856;28;20048;-63
2024/01/01 02:38:24;;;;;;;14.05;3.28;;;;;;;8.40;74.15;99819.03;5090705;28;20475;-64
2024/01/01 02:40:50;;;;;;;13.13;3.50;;;;;;;8.40;74.26;99809.91;5069892;28;20033;-64
2024/01/01 02:43:15;;;;;;;11.48;3.20;;;;;;;8.40;74.69;99819.03;5059929;28;20028;-65
2024/01/01 02:45:40;;;;;;;9.73;2.80;;;;;;;8.42;74.63;99825.16;5073065;28;20559;-65
2024/01/01 02:48:06;;;;;;;11.52;3.00;;;;;;;8.42;74.92;99822.38;5068273;28;20028;-65
2024/01/01 02:50:33;;;;;;;11.07;3.47;;;;;;;8.49;74.33;99830.44;5072558;28;20052;-65
2024/01/01 02:52:58;;;;;;;10.82;2.90;;;;;;;8.49;74.20;99834.06;5082135;28;20103;-65
2024/01/01 02:55:23;;;;;;;14.00;3.22;;;;;;;8.46;74.38;99825.47;5063691;28;20116;-65
2024/01/01 02:57:49;;;;;;;16.40;3.17;;;;;;;8.49;74.37;99836.84;5067721;28;20020;-65
2024/01/01 03:00:14;;;;;;;11.15;3.47;;;;;;;8.51;74.75;99833.78;5068867;28;20040;-65
2024/01/01 03:02:40;;;;;;;15.02;3.35;;;;;;;8.54;74.09;99822.22;5062938;28;20503;-65
2024/01/01 03:05:06;;;;;;;14.27;3.05;;;;;;;8.54;74.51;99817.50;5055774;28;20033;-65
2024/01/01 03:07:32;;;;;;;10.95;2.92;;;;;;;8.51;74.16;99820.78;5051675;28;20074;-65
2024/01/01 03:09:58;;;;;;;12.77;3.53;;;;;;;8.52;74.38;99824.38;5054421;28;20021;-65
2024/01/01 03:12:26;;;;;;;11.60;3.00;;;;;;;8.47;74.08;99819.66;5054835;28;20037;-65
2024/01/01 03:14:51;;;;;;;12.75;3.60;;;;;;;8.48;73.94;99839.84;5051719;28;20043;-65
2024/01/01 03:17:17;;;;;;;9.57;2.35;;;;;;;8.50;73.90;99830.19;5063491;28;20383;-65
2024/01/01 03:19:42;;;;;;;10.10;2.58;;;;;;;8.50;73.94;99845.97;5056149;28;20044;-65
2024/01/01 03:22:07;;;;;;;10.85;2.75;;;;;;;8.52;74.19;99825.22;5051978;28;20472;-65
2024/01/01 03:24:32;;;;;;;11.75;3.08;;;;;;;8.46;74.15;99840.13;5051826;28;20036;-65
2024/01/01 03:26:58;;;;;;;10.30;2.88;;;;;;;8.45;73.61;99829.31;5050813;28;20036;-65
2024/01/01 03:29:23;;;;;;;10.75;2.78;;;;;;;8.40;73.47;99840.34;5051454;28;20029;-65
2024/01/01 03:31:48;;;;;;;15.43;3.55;;;;;;;8.39;73.44;99846.97;5051498;28;20032;-65
2024/01/01 03:34:20;;;;;;;13.80;3.10;;;;;;;8.41;73.61;99867.75;5068495;28;20110;-65
2024/01/01 03:36:45;;;;;;;11.65;2.60;;;;;;;8.44;73.35;99845.06;5059894;28;20033;-65
2024/01/01 03:39:10;;;;;;;13.73;3.35;;;;;;;8.46;73.42;99848.41;5055205;28;20048;-65
2024/01/01 03:41:35;;;;;;;14.27;3.00;;;;;;;8.48;73.19;99843.44;5090379;28;20039;-65
2024/01/01 03:44:03;;;;;;;14.48;3.25;;;;;;;8.48;73.28;99856.44;5090779;28;20105;-65
2024/01/01 03:46:29;;;;;;;16.20;3.20;;;;;;;8.39;73.32;99850.56;5091425;28;20031;-65
2024/01/01 03:48:54;;;;;;;15.77;3.13;;;;;;;8.36;73.64;99851.06;5062306;28;20402;-65
2024/01/01 03:51:20;;;;;;;10.45;2.60;;;;;;;8.31;73.89;99846.31;5057335;28;20037;-65
2024/01/01 03:53:45;;;;;;;9.88;2.67;;;;;;;8.22;73.98;99860.91;5057333;28;20417;-65
2024/01/01 03:56:11;;;;;;;10.63;3.10;;;;;;;8.16;73.77;99851.69;5050039;28;20032;-65
2024/01/01 03:58:36;;;;;;;12.25;3.50;;;;;;;8.23;74.08;99855.09;5057028;28;20029;-65
2024/01/01 04:01:01;;;;;;;9.38;2.53;;;;;;;8.18;73.61;99840.41;5054664;28;20040;-65
2024/01/01 04:03:27;;;;;;;11.57;3.15;;;;;;;8.16;74.36;99845.34;5059484;28;20040;-65
2024/01/01 04:05:55;;;;;;;10.48;2.70;;;;;;;8.15;73.90;99855.56;5051591;28;20419;-65
2024/01/01 04:08:20;;;;;;;12.60;3.25;;;;;;;8.18;74.19;99851.47;5050665;28;20110;-65
2024/01/01 04:10:47;;;;;;;10.65;2.80;;;;;;;8.22;73.63;99860.91;5051090;28;20511;-65
2024/01/01 04:13:12;;;;;;;8.82;2.42;;;;;;;8.27;73.96;99864.53;5053093;28;20035;-65
2024/01/01 04:15:38;;;;;;;9.77;2.42;;;;;;;8.29;73.64;99865.13;5054586;28;20033;-65
2024/01/01 04:18:03;;;;;;;8.85;2.25;;;;;;;8.27;73.77;99859.00;5054934;28;20469;-65
2024/01/01 04:20:28;;;;;;;10.48;2.40;;;;;;;8.28;73.43;99863.41;5063494;28;20025;-65
2024/01/01 04:22:54;;;;;;;11.10;2.67;;;;;;;8.26;73.50;99859.28;5071262;28;20078;-65
2024/01/01 04:25:19;;;;;;;8.52;2.50;;;;;;;8.28;73.11;99868.13;5074875;28;20040;-65
2024/01/01 04:27:44;;;;;;;8.20;2.28;;;;;;;8.20;72.74;99858.38;5075057;28;20395;-65
2024/01/01 04:30:10;;;;;;;9.23;2.63;;;;;;;8.25;72.95;99863.97;5074247;28;20092;-65
2024/01/01 04:32:36;;;;;;;8.75;2.50;;;;;;;8.27;73.44;99864.53;5072444;28;20054;-65
2024/01/01 04:35:04;;;;;;;7.65;2.53;;;;;;;8.24;72.58;99867.81;5075066;28;20064;-65
2024/01/01 04:37:29;;;;;;;8.45;2.60;;;;;;;8.28;72.57;99866.19;5074076;28;20039;-65
2024/01/01 04:39:55;;;;;;;11.52;2.60;;;;;;;8.17;72.68;99874.63;5058562;28;20123;-65
2024/01/01 04:42:20;;;;;;;9.63;2.42;;;;;;;8.14;72.73;99864.13;5067727;28;20357;-65
2024/01/01 04:44:45;;;;;;;9.10;2.75;;;;;;;8.17;72.38;99866.34;5058151;28;20060;-65
2024/01/01 04:47:11;;;;;;;9.05;2.33;;;;;;;8.21;72.84;99875.78;5054830;28;20017;-65
2024/01/01 04:49:36;;;;;;;11.30;2.85;;;;;;;8.25;72.38;99865.88;5054632;28;20078;-65
2024/01/01 04:52:01;;;;;;;10.50;2.47;;;;;;;8.28;72.21;99873.66;5054091;28;20483;-65
2024/01/01 04:54:33;;;;;;;10.90;2.83;;;;;;;8.31;72.46;99873.97;5054350;28;20529;-66
2024/01/01 04:56:58;;;;;;;10.35;2.92;;;;;;;8.27;72.02;99888.56;5071720;28;20033;-65
2024/01/01 04:59:23;;;;;;;11.10;2.60;;;;;;;8.27;72.50;99881.13;5068685;28;20039;-65
2024/01/01 05:01:48;;;;;;;9.40;2.67;;;;;;;8.29;72.32;99890.00;5072542;28;20041;-65
2024/01/01 05:04:14;;;;;;;10.25;2.70;;;;;;;8.29;72.70;99894.66;5094594;28;20063;-65
2024/01/01 05:06:40;;;;;;;12.13;2.75;;;;;;;8.31;72.27;99898.00;5093632;28;20024;-65
2024/01/01 05:09:06;;;;;;;12.35;2.83;;;;;;;8.21;72.32;99886.84;5079717;28;20029;-65
2024/01/01 05:11:33;;;;;;;9.90;2.83;;;;;;;8.26;72.31;99893.28;5061245;28;20033;-65
2024/01/01 05:13:58;;;;;;;8.45;2.50;;;;;;;8.28;72.70;99890.25;5056871;28;20134;-65
2024/01/01 05:16:24;;;;;;;8.88;2.67;;;;;;;8.29;72.08;99902.97;5054002;28;20476;-65
2024/01/01 05:18:49;;;;;;;7.72;2.30;;;;;;;8.22;72.21;99892.13;5053409;28;20033;-65
2024/01/01 05:21:14;;;;;;;10.25;2.70;;;;;;;8.20;72.24;99891.53;5054042;28;20033;-65
2024/01/01 05:23:39;;;;;;;8.48;2.50;;;;;;;8.23;72.20;99898.50;5053283;28;20028;-65
2024/01/01 05:26:06;;;;;;;10.05;2.20;;;;;;;8.25;72.24;99899.91;5072058;28;20344;-65
2024/01/01 05:28:32;;;;;;;10.70;2.15;;;;;;;8.20;71.78;99899.84;5074002;28;20021;-65
2024/01/01 05:30:57;;;;;;;12.30;2.50;;;;;;;8.20;72.46;99915.59;5059647;28;20438;-65
2024/01/01 05:33:22;;;;;;;13.63;2.72;;;;;;;8.20;72.66;99916.41;5057127;28;20025;-66
2024/01/01 05:35:50;;;;;;;12.27;2.38;;;;;;;8.16;72.23;99909.75;5053848;28;20357;-65
2024/01/01 05:38:17;;;;;;;9.05;2.35;;;;;;;8.19;72.37;99930.50;5052797;28;20021;-65
2024/01/01 05:40:44;;;;;;;8.88;2.17;;;;;;;8.22;71.95;99927.25;5071836;28;20028;-65
2024/01/01 05:43:09;;;;;;;8.38;2.20;;;;;;;8.21;72.38;99926.38;5073703;28;20107;-65
2024/01/01 05:45:35;;;;;;;8.63;2.20;;;;;;;8.26;71.82;99920.09;5073512;28;20158;-66
2024/01/01 05:48:00;;;;;;;9.07;1.92;;;;;;;8.24;72.25;99928.63;5072676;28;20077;-65
2024/01/01 05:50:26;;;;;;;8.95;2.53;;;;;;;8.29;72.08;99928.69;5062541;28;20065;-65
2024/01/01 05:52:57;;;;;;;9.50;2.38;;;;;;;8.31;72.05;99933.97;5057009;28;20025;-66
2024/01/01 05:55:23;;;;;;;15.05;2.80;;;;;;;8.29;72.11;99930.59;5071027;28;20028;-65
2024/01/01 05:57:48;;;;;;;10.00;2.92;;;;;;;8.32;72.49;99947.50;5073299;28;20392;-66
2024/01/01 06:00:14;;;;;;;6.50;2.40;;;;;;;8.28;72.42;99948.28;5071258;28;20055;-65
2024/01/01 06:02:42;;;;;;;10.52;2.65;;;;;;;8.25;72.99;99949.66;5060262;28;20111;-65
2024/01/01 06:05:07;;;;;;;8.93;2.35;;;;;;;8.23;73.18;99948.25;5053238;28;20020;-66
2024/01/01 06:07:33;;;;;;;9.23;2.50;;;;;;;8.19;73.28;99955.41;5053150;28;20360;-65
2024/01/01 06:09:58;;;;;;;8.15;2.40;;;;;;;8.17;72.97;99961.16;5062166;28;20391;-66
2024/01/01 06:12:24;;;;;;;9.68;2.30;;;;;;;8.16;73.10;99950.38;5064305;28;20040;-65
2024/01/01 06:14:50;;;;;;;9.65;2.58;;;;;;;8.09;72.88;99956.09;5059086;28;20039;-66
2024/01/01 06:17:15;;;;;;;11.20;2.75;;;;;;;8.11;73.62;99964.97;5052119;28;20354;-65
2024/01/01 06:19:40;;;;;;;11.70;2.63;;;;;;;8.12;73.11;99958.34;5052832;28;20029;-66
2024/01/01 06:22:12;;;;;;;10.93;2.90;;;;;;;8.08;73.53;99952.50;5051699;28;20055;-65
2024/01/01 06:24:37;;;;;;;9.30;2.20;;;;;;;8.07;73.07;99967.41;5052886;28;20033;-66
2024/01/01 06:27:02;;;;;;;10.13;2.80;;;;;;;8.02;72.91;99969.31;5062035;28;20504;-65
2024/01/01 06:29:28;;;;;;;13.18;2.85;;;;;;;8.01;73.61;99970.38;5067590;28;20025;-66
2024/01/01 06:31:53;;;;;;;12.63;2.70;;;;;;;8.05;73.27;99979.81;5070865;28;20100;-65
2024/01/01 06:34:19;;;;;;;9.27;2.17;;;;;;;8.01;73.15;99978.66;5069511;28;20049;-67
2024/01/01 06:36:45;;;;;;;9.43;2.80;;;;;;;7.96;73.32;99990.50;5057934;28;20024;-66
2024/01/01 06:39:22;;;;;;;10.60;2.75;;;;;;;8.01;73.39;100000.78;5072154;28;20045;-65
2024/01/01 06:41:50;;;;;;;9.70;2.40;;;;;;;8.01;73.12;100003.53;5072482;28;20025;-65
2024/01/01 06:44:15;;;;;;;8.07;2.22;;;;;;;8.05;73.64;100007.44;5071713;28;20064;-66
2024/01/01 06:46:41;;;;;;;10.13;2.53;;;;;;;8.07;73.19;100011.66;5079452;28;20078;-65
2024/01/01 06:49:06;;;;;;;10.25;2.63;;;;;;;8.09;73.42;100026.03;5078403;28;20028;-65
2024/01/01 06:51:33;;;;;;;10.65;2.42;;;;;;;8.08;72.72;100024.38;5085238;28;20041;-66
2024/01/01 06:53:58;;;;;;;7.40;2.42;;;;;;;8.05;72.66;100035.91;5085759;28;20079;-66
2024/01/01 06:56:23;;;;;;;12.75;3.00;;;;;;;8.04;73.06;100023.22;5076899;28;20171;-65
2024/01/01 06:58:48;;;;;;;8.25;2.47;;;;;;;8.05;73.71;100030.41;5079650;28;20032;-67
2024/01/01 07:01:14;;;;;;;11.05;2.55;;;;;;;8.09;73.73;100039.00;5066560;28;20033;-67
2024/01/01 07:03:39;;;;;;;11.20;2.22;;;;;;;8.11;72.83;100031.31;5072043;28;20035;-66
2024/01/01 07:06:04;;;;;;;9.05;2.40;;;;;;;8.10;73.43;100043.47;5070880;28;20495;-65
2024/01/01 07:08:30;;;;;;;10.63;2.55;;;;;;;8.09;73.50;100042.59;5088419;28;20043;-66
2024/01/01 07:10:57;;;;;;;10.73;2.70;;;;;;;8.09;73.39;100050.91;5092101;28;20031;-66
2024/01/01 07:13:23;;;;;;;12.15;3.33;;;;;;;8.09;73.62;100056.44;5066148;28;20025;-66
2024/01/01 07:15:48;;;;;;;9.15;2.83;;;;;;;8.12;73.52;100057.84;5057574;28;20112;-65
2024/01/01 07:18:14;;;;;;;11.63;3.05;;;;;;;8.10;73.87;100060.06;5051357;28;20029;-66
2024/01/01 07:20:39;;;;;;;10.20;2.83;;;;;;;8.10;73.76;100058.13;5051141;28;20029;-65
2024/01/01 07:23:04;;;;;;;9.15;3.20;;;;;;;8.13;73.84;100065.03;5051620;28;20039;-66
2024/01/01 07:25:30;;;;;;;8.27;2.67;;;;;;;8.14;73.95;100071.44;5048863;28;20032;-65
2024/01/01 07:27:55;;;;;;;9.00;2.33;;;;;;;8.07;74.01;100072.44;5063823;28;20024;-65
2024/01/01 07:30:21;;;;;;;12.25;3.00;;;;;;;8.01;73.57;100072.63;5071359;28;20040;-65
2024/01/01 07:32:46;;;;;;;8.23;2.45;;;;;;;7.92;73.73;100061.19;5078376;28;20391;-65
2024/01/01 07:35:14;;;;;;;10.07;2.83;;;;;;;7.97;74.03;100072.28;5091351;28;20218;-66
2024/01/01 07:37:39;;;;;;;7.20;2.10;;;;;;;7.93;74.08;100071.13;5072865;28;20110;-65
2024/01/01 07:40:07;;;;;;;10.48;2.72;;;;;;;7.92;74.76;100075.00;5089862;28;20498;-65
2024/01/01 07:42:33;;;;;;;11.18;2.92;;;;;;;7.92;74.97;100080.53;5075362;28;20037;-65
2024/01/01 07:44:58;;;;;;;8.60;2.78;;;;;;;7.97;74.32;100077.81;5062603;28;20186;-66
2024/01/01 07:47:23;;;;;;;9.00;3.08;;;;;;;7.93;74.36;100093.25;5065836;28;20028;-65
2024/01/01 07:49:51;;;;;;;11.65;2.90;;;;;;;7.92;74.34;100086.06;5087737;28;20078;-65
2024/01/01 07:52:17;;;;;;;10.02;2.63;;;;;;;7.95;74.85;100080.03;5090673;28;20487;-66
2024/01/01 07:54:42;;;;;;;9.20;2.75;;;;;;;8.00;74.08;100093.91;5090274;28;20029;-65
2024/01/01 07:57:08;;;;;;;10.07;2.40;;;;;;;8.05;74.39;100105.00;5091406;28;20028;-65
2024/01/01 07:59:33;;;;;;;8.02;2.70;;;;;;;8.04;74.49;100100.59;5086704;28;20111;-65
2024/01/01 08:01:59;;;;;;;12.10;3.25;;;;;;;8.08;74.67;100114.75;5061934;28;20031;-65
2024/01/01 08:04:24;;;;;;;12.73;3.10;;;;;;;8.07;73.98;100105.63;5056753;28;20051;-65
2024/01/01 08:06:49;;;;;;;10.30;2.88;;;;;;;8.10;73.67;100118.94;5063308;28;20062;-65
2024/01/01 08:09:15;;;;;;;8.20;2.38;;;;;;;8.10;73.61;100126.38;5070060;28;20487;-65
2024/01/01 08:11:40;;;;;;;13.40;2.65;;;;;;;8.04;74.18;100125.47;5051735;28;20384;-65
2024/01/01 08:14:05;;;;;;;10.82;2.60;;;;;;;8.04;74.08;100132.91;5053031;28;20591;-65
2024/01/01 08:16:33;;;;;;;10.80;2.47;;;;;;;8.05;74.25;100140.13;5056630;28;20025;-65
2024/01/01 08:18:58;;;;;;;16.15;3.65;;;;;;;7.98;74.60;100145.84;5050321;28;20025;-65
2024/01/01 08:21:24;;;;;;;10.15;2.60;;;;;;;8.00;74.59;100149.16;5050878;28;20369;-65
2024/01/01 08:23:49;;;;;;;9.63;2.40;;;;;;;8.01;74.81;100147.25;5049865;28;20590;-65
2024/01/01 08:26:14;;;;;;;12.30;3.38;;;;;;;8.04;75.23;100160.56;5052523;28;20029;-65
2024/01/01 08:28:40;;;;;;;11.15;2.88;;;;;;;8.05;75.56;100156.69;5054468;28;20051;-65
2024/01/01 08:31:05;;;;;;;9.05;2.55;;;;;;;8.06;75.23;100158.41;5068840;28;20024;-64
2024/01/01 08:33:33;;;;;;;9.88;2.50;;;;;;;8.05;75.56;100163.06;5088199;28;20020;-65
2024/01/01 08:35:58;;;;;;;8.57;2.78;;;;;;;8.08;76.01;100173.63;5049975;28;20475;-64
2024/01/01 08:38:24;;;;;;;9.20;2.70;;;;;;;8.10;75.63;100176.13;5048873;28;20073;-65
2024/01/01 08:40:51;;;;;;;13.32;3.00;;;;;;;8.09;75.69;100175.28;5071158;28;20039;-63
2024/01/01 08:43:16;;;;;;;9.32;2.50;;;;;;;8.04;76.23;100180.75;5090021;28;20147;-64
2024/01/01 08:45:43;;;;;;;8.95;2.75;;;;;;;8.08;75.90;100187.44;5089985;28;20103;-65
2024/01/01 08:48:09;;;;;;;7.65;2.55;;;;;;;8.08;77.06;100194.88;5065574;28;20029;-65
2024/01/01 08:50:34;;;;;;;10.80;2.80;;;;;;;8.10;76.53;100185.25;5060470;28;20051;-67
2024/01/01 08:52:59;;;;;;;13.25;3.20;;;;;;;8.17;76.70;100195.28;5083333;28;20123;-65
2024/01/01 08:55:25;;;;;;;11.38;2.90;;;;;;;8.17;76.39;100204.41;5080519;28;20222;-67
2024/01/01 08:57:50;;;;;;;12.27;2.88;;;;;;;8.18;76.16;100199.75;5069133;28;20024;-65
2024/01/01 09:00:18;;;;;;;13.77;3.05;;;;;;;8.16;76.87;100201.91;5089315;28;20361;-65
2024/01/01 09:02:44;;;;;;;13.85;3.10;;;;;;;8.04;76.98;100189.03;5083420;28;20020;-64
2024/01/01 09:05:09;;;;;;;11.95;2.97;;;;;;;8.03;76.83;100206.72;5093225;28;20402;-69
2024/01/01 09:07:35;;;;;;;6.88;2.42;;;;;;;8.02;76.44;100201.44;5093537;28;20024;-74
2024/01/01 09:10:06;;;;;;;7.88;3.22;;;;;;;8.02;76.77;100210.56;5082992;28;20498;-68
2024/01/01 09:12:31;;;;;;;13.60;4.88;;;;;;;8.08;77.46;100219.75;5057287;28;20056;-66
2024/01/01 09:14:57;;;;;;;8.60;2.70;;;;;;;8.14;77.24;100215.19;5054773;28;20078;-66
2024/01/01 09:17:22;;;;;;;11.65;4.45;;;;;;;8.15;76.79;100230.66;5059798;28;20028;-66
2024/01/01 09:19:48;;;;;;;15.23;5.00;;;;;;;8.11;77.91;100230.31;5054009;28;20036;-66
2024/01/01 09:22:14;;;;;;;9.05;3.20;;;;;;;8.10;77.64;100237.78;5053440;28;20135;-66
2024/01/01 09:24:41;;;;;;;10.48;5.75;;;;;;;8.07;78.15;100242.97;5082578;28;20032;-63
2024/01/01 09:27:06;;;;;;;12.45;3.67;;;;;;;8.08;77.94;100255.69;5077262;28;20055;-63
2024/01/01 09:29:31;;;;;;;7.35;2.78;;;;;;;8.07;78.47;100251.28;5062193;28;20484;-63
2024/01/01 09:31:57;;;;;;;7.97;2.40;;;;;;;8.08;77.84;100250.16;5054721;28;20094;-64
2024/01/01 09:34:22;;;;;;;10.98;3.00;;;;;;;8.09;78.55;100251.84;5051859;28;20017;-63
2024/01/01 09:36:47;;;;;;;7.80;2.72;;;;;;;8.12;78.31;100252.16;5065678;28;20040;-65
2024/01/01 09:39:13;;;;;;;8.35;3.75;;;;;;;8.16;78.08;100262.72;5053846;28;20041;-66
2024/01/01 09:41:39;;;;;;;14.05;6.15;;;;;;;8.16;78.71;100257.22;5053051;28;20044;-65
2024/01/01 09:44:05;;;;;;;25.00;16.65;;;;;;;8.18;78.42;100247.59;5063058;28;20021;-65
2024/01/01 09:46:33;;;;;;;19.30;13.18;;;;;;;8.19;78.98;100265.84;5071554;28;20412;-65
2024/01/01 09:49:02;;;;;;;11.50;4.57;;;;;;;8.19;78.92;100274.13;5066368;28;20037;-65
2024/01/01 09:51:27;;;;;;;9.65;3.53;;;;;;;8.21;78.61;100279.41;5068584;28;20032;-65
2024/01/01 09:53:53;;;;;;;10.90;3.30;;;;;;;8.24;78.13;100287.19;5057048;28;20031;-64
2024/01/01 09:56:18;;;;;;;8.52;2.95;;;;;;;8.23;78.63;100277.22;5060954;28;20104;-65
2024/01/01 09:58:45;;;;;;;9.93;3.78;;;;;;;8.24;78.51;100285.25;5067119;28;20091;-64
2024/01/01 10:01:21;;;;;;;11.32;3.63;;;;;;;8.24;78.74;100292.72;5061951;28;20029;-69
2024/01/01 10:04:03;;;;;;;10.00;3.05;;;;;;;8.26;78.57;100296.09;5053411;28;20065;-65
2024/01/01 10:06:30;;;;;;;10.50;3.13;;;;;;;8.27;78.39;100292.22;5055783;28;20485;-62
2024/01/01 10:09:05;;;;;;;10.13;3.20;;;;;;;8.28;79.12;100291.97;5051580;28;20107;-63
2024/01/01 10:11:30;;;;;;;9.70;3.03;;;;;;;8.34;78.76;100292.91;5057158;28;20059;-63
2024/01/01 10:14:03;;;;;;;14.05;2.83;;;;;;;8.35;78.87;100297.34;5058536;28;20480;-62
2024/01/01 10:16:29;;;;;;;8.07;2.60;;;;;;;8.34;77.63;100296.50;5060556;28;20043;-63
2024/01/01 10:18:59;;;;;;;11.70;3.40;;;;;;;8.29;77.79;100314.91;5053993;28;20032;-64
2024/01/01 10:21:36;;;;;;;9.23;2.55;;;;;;;8.36;77.67;100312.81;5065335;28;20034;-64
2024/01/01 10:24:37;;;;;;;6.85;2.60;;;;;;;8.59;78.08;100314.59;5060435;28;20067;-62
2024/01/01 10:27:02;;;;;;;10.25;3.17;;;;;;;8.95;76.89;100312.34;4962408;28;20045;-59
2024/01/01 10:29:28;;;;;;;10.40;3.00;;;;;;;9.18;76.65;100316.81;5039537;28;20032;-63
2024/01/01 10:31:54;;;;;;;11.55;3.53;;;;;;;9.39;76.12;100306.81;5067120;28;20040;-63
2024/01/01 10:34:20;;;;;;;10.63;3.30;;;;;;;9.57;75.74;100312.88;5058627;28;20082;-63
2024/01/01 10:36:45;;;;;;;12.05;3.30;;;;;;;9.71;74.75;100320.78;5058547;28;20053;-63
2024/01/01 10:39:12;;;;;;;13.13;3.08;;;;;;;9.73;74.29;100318.59;5064395;28;20083;-63
2024/01/01 10:41:39;;;;;;;10.60;3.20;;;;;;;9.66;74.21;100315.19;5059155;28;20083;-63
2024/01/01 10:44:09;;;;;;;10.98;3.50;;;;;;;9.59;74.06;100323.72;5052546;28;20035;-63
2024/01/01 10:46:39;;;;;;;12.20;2.90;;;;;;;9.51;74.18;100322.25;5060834;28;20099;-63
2024/01/01 10:49:15;;;;;;;10.05;2.95;;;;;;;9.39;74.80;100338.13;5058822;28;20050;-64
2024/01/01 10:52:24;;;;;;;18.92;4.38;;;;;;;9.36;75.11;100344.22;5061656;28;20039;-69
2024/01/01 10:55:13;;;;;;;14.18;3.80;;;;;;;9.23;75.67;100344.56;5058043;28;20028;-64
2024/01/01 10:58:07;;;;;;;18.50;8.82;;;;;;;9.17;75.58;100331.78;5057273;28;20126;-64
2024/01/01 11:01:08;;;;;;;12.45;4.38;;;;;;;9.22;75.93;100342.91;5065097;28;20048;-62
2024/01/01 11:03:35;;;;;;;16.10;4.70;;;;;;;9.13;76.04;100344.44;5054569;28;20053;-60
2024/01/01 11:06:41;;;;;;;15.68;4.18;;;;;;;9.08;76.64;100342.47;5064737;28;20059;-58
2024/01/01 11:09:19;;;;;;;14.63;3.40;;;;;;;9.01;76.65;100347.34;5056375;28;20016;-64
2024/01/01 11:11:51;;;;;;;15.73;4.05;;;;;;;8.96;76.43;100341.72;5059499;28;20025;-62
2024/01/01 11:14:26;;;;;;;14.00;4.22;;;;;;;9.00;77.17;100357.56;5064163;28;20361;-62
2024/01/01 11:16:53;;;;;;;15.13;4.00;;;;;;;8.95;77.33;100371.31;5082507;28;20047;-62
2024/01/01 11:19:51;;;;;;;15.25;3.97;;;;;;;9.00;77.13;100357.56;5089145;28;20522;-58
2024/01/01 11:22:30;;;;;;;18.45;4.43;;;;;;;9.05;78.13;100354.88;5025625;28;20040;-61
2024/01/01 11:24:56;;;;;;;19.77;5.78;;;;;;;9.11;78.19;100344.69;5089361;28;20490;-58
2024/01/01 11:27:35;;;;;;;16.88;4.20;;;;;;;9.13;77.70;100350.00;5076148;28;20044;-58
2024/01/01 11:30:05;;;;;;;13.65;4.30;;;;;;;9.10;77.37;100360.47;5073291;28;20471;-63
2024/01/01 11:32:31;;;;;;;11.70;3.60;;;;;;;9.10;76.90;100362.41;5056125;28;20123;-63